Atlanta, Georgia
Traffic Map
Current Weather Conditions
Atlanta, Georgia
Clear
Clear
-2°
Feels Like: -8°
Wind Chill: -8° Ceiling: Unl
Heat Index: -2° Visibility: 10mi
Dew Point: -9° Wind: 14mph
Humidity: 61% Direction: 320° (NW)
Pressure: 30.42in Gusts: 0mph
Raw Report DataKATL 091152Z 32012KT 10SM CLR M02/M09 A3042 RMK AO2 SLP311 T10221089 10017 21022 53013
Traffic Incident Summary
Active as of:
Severity:
Category:
InformationThere was an issue retrieving the traffic information for this location. Please try a different location or try again shortly.
Advertisements
Track Severe Weather on mobile